createdAt,value
2022-12-14T00:01:23.976Z,98296.28
2022-12-14T00:03:22.196Z,98306.47
2022-12-14T00:05:20.525Z,98313.78
2022-12-14T00:07:18.484Z,98303.56
2022-12-14T00:09:16.483Z,98307.97
2022-12-14T00:11:14.474Z,98303.56
2022-12-14T00:13:12.565Z,98309.38
2022-12-14T00:15:10.563Z,98296.25
2022-12-14T00:17:08.588Z,98295.50
2022-12-14T00:19:06.561Z,98293.31
2022-12-14T00:21:04.521Z,98296.97
2022-12-14T00:23:02.465Z,98302.06
2022-12-14T00:25:00.384Z,98291.09
2022-12-14T00:26:58.302Z,98293.28
2022-12-14T00:28:57.339Z,98283.78
2022-12-14T00:30:58.360Z,98281.56
2022-12-14T00:32:56.837Z,98282.31
2022-12-14T00:34:54.777Z,98285.22
2022-12-14T00:36:52.812Z,98288.16
2022-12-14T00:38:51.817Z,98288.88
2022-12-14T00:40:50.002Z,98288.88
2022-12-14T00:42:47.904Z,98299.88
2022-12-14T00:44:46.122Z,98300.59
2022-12-14T00:46:44.062Z,98291.13
2022-12-14T00:48:42.065Z,98293.31
2022-12-14T00:50:40.371Z,98283.09
2022-12-14T00:52:38.596Z,98272.91
2022-12-14T00:54:36.682Z,98271.44
2022-12-14T00:56:34.711Z,98268.53
2022-12-14T00:58:32.749Z,98258.34
2022-12-14T01:00:30.722Z,98249.59
2022-12-14T01:02:28.989Z,98258.38
2022-12-14T01:04:27.102Z,98262.72
2022-12-14T01:06:25.098Z,98256.19
2022-12-14T01:08:22.990Z,98266.41
2022-12-14T01:10:20.883Z,98259.81
2022-12-14T01:12:18.841Z,98257.66
2022-12-14T01:14:16.797Z,98258.41
2022-12-14T01:16:14.836Z,98256.91
2022-12-14T01:18:13.084Z,98245.25
2022-12-14T01:20:11.026Z,98255.47
2022-12-14T01:22:10.236Z,98249.63
2022-12-14T01:24:08.854Z,98246.00
2022-12-14T01:26:06.758Z,98252.53
2022-12-14T01:28:05.058Z,98252.53
2022-12-14T01:30:03.855Z,98251.09
2022-12-14T01:32:01.766Z,98241.63
2022-12-14T01:33:59.703Z,98243.09
2022-12-14T01:35:57.596Z,98234.31
2022-12-14T01:37:55.504Z,98232.13
2022-12-14T01:39:53.615Z,98232.84
2022-12-14T01:41:52.883Z,98234.31
2022-12-14T01:43:50.834Z,98235.75
2022-12-14T01:45:48.742Z,98240.13
2022-12-14T01:47:46.629Z,98249.63
2022-12-14T01:49:44.555Z,98262.75
2022-12-14T01:51:45.653Z,98254.00
2022-12-14T01:53:43.553Z,98249.63
2022-12-14T01:55:42.611Z,98249.59
2022-12-14T01:57:46.631Z,98259.84
2022-12-14T01:59:44.674Z,98254.72
2022-12-14T02:01:42.742Z,98244.50
2022-12-14T02:03:40.817Z,98248.16
2022-12-14T02:05:39.133Z,98245.97
2022-12-14T02:07:38.143Z,98242.31
2022-12-14T02:09:36.160Z,98236.47
2022-12-14T02:11:34.067Z,98232.09
2022-12-14T02:13:31.983Z,98227.72
2022-12-14T02:15:29.979Z,98216.78
2022-12-14T02:17:27.948Z,98216.03
2022-12-14T02:19:25.808Z,98208.72
2022-12-14T02:21:24.030Z,98213.84
2022-12-14T02:23:22.028Z,98202.88
2022-12-14T02:25:20.019Z,98203.63
2022-12-14T02:27:18.097Z,98201.44
2022-12-14T02:29:15.983Z,98215.31
2022-12-14T02:31:14.021Z,98205.81
2022-12-14T02:33:12.184Z,98202.91
2022-12-14T02:35:10.114Z,98204.34
2022-12-14T02:37:08.065Z,98213.13
2022-12-14T02:39:06.326Z,98206.53
2022-12-14T02:41:04.460Z,98215.31
2022-12-14T02:43:02.401Z,98218.97
2022-12-14T02:45:00.355Z,98218.22
2022-12-14T02:46:58.384Z,98213.13
2022-12-14T02:48:56.414Z,98226.22
2022-12-14T02:50:54.340Z,98234.97
2022-12-14T02:52:52.439Z,98234.28
2022-12-14T02:54:50.462Z,98236.47
2022-12-14T02:56:48.380Z,98223.31
2022-12-14T02:58:48.800Z,98221.13
2022-12-14T03:00:47.000Z,98210.19
2022-12-14T03:02:44.999Z,98215.28
2022-12-14T03:04:47.591Z,98213.09
2022-12-14T03:06:45.631Z,98224.03
2022-12-14T03:08:43.540Z,98225.50
2022-12-14T03:10:41.507Z,98224.75
2022-12-14T03:12:39.410Z,98218.19
2022-12-14T03:14:37.293Z,98217.47
2022-12-14T03:16:35.360Z,98205.06
2022-12-14T03:18:33.295Z,98201.44
2022-12-14T03:20:31.369Z,98191.22
2022-12-14T03:22:29.450Z,98179.53
2022-12-14T03:24:27.510Z,98173.00
2022-12-14T03:26:25.994Z,98178.81
2022-12-14T03:28:23.963Z,98180.25
2022-12-14T03:30:57.761Z,98170.78
2022-12-14T03:32:39.794Z,98170.06
2022-12-14T03:34:38.773Z,98162.75
2022-12-14T03:36:36.925Z,98170.78
2022-12-14T03:38:34.917Z,98163.47
2022-12-14T03:40:32.873Z,98170.78
2022-12-14T03:42:30.747Z,98184.63
2022-12-14T03:44:28.702Z,98166.38
2022-12-14T03:46:26.750Z,98172.97
2022-12-14T03:48:24.654Z,98172.97
2022-12-14T03:50:22.771Z,98175.88
2022-12-14T03:52:20.725Z,98164.22
2022-12-14T03:54:18.674Z,98162.03
2022-12-14T03:56:16.641Z,98159.09
2022-12-14T03:58:14.758Z,98161.28
2022-12-14T04:00:13.270Z,98157.66
2022-12-14T04:02:11.216Z,98152.53
2022-12-14T04:04:09.233Z,98153.28
2022-12-14T04:06:07.257Z,98158.38
2022-12-14T04:08:05.175Z,98143.78
2022-12-14T04:10:03.169Z,98129.91
2022-12-14T04:12:18.913Z,98126.28
2022-12-14T04:14:34.649Z,98126.28
2022-12-14T04:16:50.581Z,98132.81
2022-12-14T04:19:00.268Z,98122.59
2022-12-14T04:20:58.992Z,98125.50
2022-12-14T04:22:57.006Z,98118.91
2022-12-14T04:25:12.465Z,98110.91
2022-12-14T04:27:10.354Z,98097.03
2022-12-14T04:29:26.212Z,98091.97
2022-12-14T04:31:24.508Z,98094.13
2022-12-14T04:33:39.954Z,98093.41
2022-12-14T04:35:37.912Z,98096.31
2022-12-14T04:37:35.881Z,98097.78
2022-12-14T04:39:34.943Z,98099.22
2022-12-14T04:41:34.119Z,98089.75
2022-12-14T04:43:32.081Z,98088.31
2022-12-14T04:45:30.365Z,98091.22
2022-12-14T04:47:28.275Z,98089.03
2022-12-14T04:49:26.168Z,98080.31
2022-12-14T04:51:24.123Z,98078.84
2022-12-14T04:53:22.140Z,98075.94
2022-12-14T04:55:20.243Z,98078.84
2022-12-14T04:57:19.401Z,98084.69
2022-12-14T04:59:17.932Z,98087.63
2022-12-14T05:01:15.939Z,98086.16
2022-12-14T05:03:14.047Z,98078.88
2022-12-14T05:05:12.005Z,98069.38
2022-12-14T05:07:10.314Z,98075.94
2022-12-14T05:09:08.672Z,98073.75
2022-12-14T05:11:30.484Z,98078.84
2022-12-14T05:13:26.045Z,98088.34
2022-12-14T05:15:24.919Z,98083.97
2022-12-14T05:17:22.870Z,98081.06
2022-12-14T05:19:26.261Z,98077.38
2022-12-14T05:21:41.941Z,98080.31
2022-12-14T05:23:39.836Z,98067.91
2022-12-14T05:25:37.755Z,98073.75
2022-12-14T05:27:35.706Z,98074.47
2022-12-14T05:29:33.669Z,98072.28
2022-12-14T05:31:31.912Z,98076.66
2022-12-14T05:33:30.562Z,98078.13
2022-12-14T05:35:28.651Z,98066.44
2022-12-14T05:37:26.814Z,98074.47
2022-12-14T05:39:24.848Z,98073.03
2022-12-14T05:41:22.848Z,98071.56
2022-12-14T05:43:20.953Z,98072.28
2022-12-14T05:45:19.245Z,98080.31
2022-12-14T05:47:17.347Z,98086.88
2022-12-14T05:49:15.621Z,98073.75
2022-12-14T05:51:13.617Z,98072.28
2022-12-14T05:53:11.657Z,98070.13
2022-12-14T05:55:10.654Z,98065.00
2022-12-14T05:57:08.606Z,98066.44
2022-12-14T05:59:06.516Z,98054.06
2022-12-14T06:01:04.460Z,98042.41
2022-12-14T06:03:02.820Z,98044.59
2022-12-14T06:05:00.929Z,98031.44
2022-12-14T06:06:58.858Z,98036.56
2022-12-14T06:08:57.070Z,98026.31
2022-12-14T06:10:55.193Z,98014.66
2022-12-14T06:12:53.168Z,98023.41
2022-12-14T06:14:51.328Z,98015.38
2022-12-14T06:16:50.491Z,98017.56
2022-12-14T06:18:48.412Z,98016.84
2022-12-14T06:20:46.593Z,98011.75
2022-12-14T06:22:47.692Z,98014.66
2022-12-14T06:24:45.977Z,98012.47
2022-12-14T06:26:43.917Z,98006.66
2022-12-14T06:28:41.860Z,97989.84
2022-12-14T06:30:39.985Z,97998.59
2022-12-14T06:32:38.001Z,97997.88
2022-12-14T06:34:39.875Z,97994.25
2022-12-14T06:36:39.592Z,97992.78
2022-12-14T06:38:37.719Z,97988.38
2022-12-14T06:40:35.646Z,98002.25
2022-12-14T06:42:33.570Z,98000.06
2022-12-14T06:44:31.559Z,97995.69
2022-12-14T06:46:29.599Z,97991.31
2022-12-14T06:48:27.887Z,97985.47
2022-12-14T06:50:25.816Z,97978.94
2022-12-14T06:52:26.994Z,97970.88
2022-12-14T06:54:25.361Z,97970.88
2022-12-14T06:56:23.332Z,97970.19
2022-12-14T06:58:21.292Z,97976.72
2022-12-14T07:00:20.557Z,97972.34
2022-12-14T07:02:19.124Z,97969.44
2022-12-14T07:04:18.755Z,97967.25
2022-12-14T07:06:16.801Z,97967.97
2022-12-14T07:08:14.971Z,97967.97
2022-12-14T07:10:13.753Z,97973.06
2022-12-14T07:12:11.657Z,97964.31
2022-12-14T07:14:09.769Z,97970.16
2022-12-14T07:16:08.141Z,97965.78
2022-12-14T07:18:06.134Z,97961.41
2022-12-14T07:20:04.410Z,97956.28
2022-12-14T07:22:04.240Z,97962.88
2022-12-14T07:24:02.408Z,97962.13
2022-12-14T07:26:01.532Z,97960.69
2022-12-14T07:27:59.455Z,97958.50
2022-12-14T07:29:58.593Z,97954.84
2022-12-14T07:31:56.488Z,97957.78
2022-12-14T07:33:54.566Z,97966.53
2022-12-14T07:35:52.653Z,97969.44
2022-12-14T07:37:50.644Z,97968.69
2022-12-14T07:39:48.573Z,97970.91
2022-12-14T07:41:47.787Z,97977.47
2022-12-14T07:43:45.996Z,97977.44
2022-12-14T07:45:48.296Z,97989.13
2022-12-14T07:47:46.483Z,97977.44
2022-12-14T07:49:44.404Z,97992.78
2022-12-14T07:51:44.175Z,97988.41
2022-12-14T07:53:42.176Z,97989.13
2022-12-14T07:55:40.334Z,97987.69
2022-12-14T07:57:38.335Z,97973.81
2022-12-14T07:59:36.265Z,97962.16
2022-12-14T08:01:34.575Z,97970.91
2022-12-14T08:03:32.987Z,97962.16
2022-12-14T08:05:39.835Z,97961.44
2022-12-14T08:07:40.891Z,97951.94
2022-12-14T08:09:39.054Z,97953.41
2022-12-14T08:11:37.050Z,97953.38
2022-12-14T08:13:34.932Z,97955.56
2022-12-14T08:15:33.991Z,97956.31
2022-12-14T08:17:32.212Z,97957.03
2022-12-14T08:19:30.105Z,97951.94
2022-12-14T08:21:28.111Z,97951.91
2022-12-14T08:23:26.850Z,97949.03
2022-12-14T08:25:25.099Z,97945.41
2022-12-14T08:27:23.124Z,97943.19
2022-12-14T08:29:22.408Z,97943.19
2022-12-14T08:31:20.482Z,97935.16
2022-12-14T08:33:18.668Z,97932.25
2022-12-14T08:35:16.826Z,97930.03
2022-12-14T08:37:14.743Z,97932.22
2022-12-14T08:39:13.332Z,97923.50
2022-12-14T08:41:11.523Z,97927.13
2022-12-14T08:43:09.702Z,97932.25
2022-12-14T08:45:07.603Z,97943.16
2022-12-14T08:47:05.663Z,97944.63
2022-12-14T08:49:04.859Z,97943.91
2022-12-14T08:51:03.218Z,97946.09
2022-12-14T08:53:01.288Z,97959.22
2022-12-14T08:55:00.064Z,97949.00
2022-12-14T08:59:24.381Z,97954.13
2022-12-14T09:01:33.611Z,97964.34
2022-12-14T09:03:32.742Z,97950.47
2022-12-14T09:05:31.320Z,97957.75
2022-12-14T09:07:29.375Z,97935.88
2022-12-14T09:09:27.334Z,97941.72
2022-12-14T09:11:25.534Z,97934.41
2022-12-14T09:13:23.538Z,97946.06
2022-12-14T09:15:22.079Z,97943.91
2022-12-14T09:17:20.334Z,97935.88
2022-12-14T09:19:18.302Z,97945.38
2022-12-14T09:21:16.240Z,97943.16
2022-12-14T09:23:14.502Z,97946.84
2022-12-14T09:25:12.712Z,97937.34
2022-12-14T09:27:11.798Z,97940.25
2022-12-14T09:29:09.737Z,97938.09
2022-12-14T09:31:08.027Z,97935.16
2022-12-14T09:33:06.396Z,97947.56
2022-12-14T09:35:04.438Z,97949.03
2022-12-14T09:37:06.966Z,97945.34
2022-12-14T09:39:05.013Z,97942.44
2022-12-14T09:41:06.907Z,97944.63
2022-12-14T09:43:05.362Z,97948.28
2022-12-14T09:45:03.839Z,97962.84
2022-12-14T09:47:03.058Z,97967.25
2022-12-14T09:49:01.180Z,97964.31
2022-12-14T09:50:59.143Z,97963.59
2022-12-14T09:52:57.136Z,97948.28
2022-12-14T09:54:55.310Z,97948.28
2022-12-14T09:56:53.228Z,97956.28
2022-12-14T09:58:51.130Z,97956.28
2022-12-14T10:00:53.300Z,97945.34
2022-12-14T10:02:51.851Z,97953.38
2022-12-14T10:04:50.143Z,97959.19
2022-12-14T10:06:48.053Z,97955.56
2022-12-14T10:08:51.017Z,97954.81
2022-12-14T10:10:52.261Z,97961.38
2022-12-14T10:12:50.183Z,97952.63
2022-12-14T10:14:48.063Z,97956.28
2022-12-14T10:16:51.667Z,97957.75
2022-12-14T10:18:59.583Z,97962.13
2022-12-14T10:20:59.140Z,97957.78
2022-12-14T10:22:58.290Z,97959.94
2022-12-14T10:24:56.501Z,97966.53
2022-12-14T10:26:54.608Z,97973.81
2022-12-14T10:28:59.260Z,97969.44
2022-12-14T10:30:59.174Z,97969.44
2022-12-14T10:32:57.112Z,97959.97
2022-12-14T10:34:55.075Z,97962.16
2022-12-14T10:36:53.090Z,97959.97
2022-12-14T10:38:52.292Z,97954.84
2022-12-14T10:40:50.432Z,97957.75
2022-12-14T10:42:49.637Z,97955.59
2022-12-14T10:44:49.392Z,97952.66
2022-12-14T10:46:49.971Z,97964.34
2022-12-14T10:48:47.976Z,97965.06
2022-12-14T10:50:49.793Z,97960.69
2022-12-14T10:52:48.190Z,97959.97
2022-12-14T10:54:46.552Z,97962.16
2022-12-14T10:56:44.545Z,97967.25
2022-12-14T10:58:49.362Z,97959.94
2022-12-14T11:00:47.553Z,97957.03
2022-12-14T11:02:46.097Z,97968.72
2022-12-14T11:04:48.636Z,97966.50
2022-12-14T11:06:47.151Z,97963.59
2022-12-14T11:08:47.915Z,97962.13
2022-12-14T11:10:46.632Z,97959.22
2022-12-14T11:12:44.592Z,97953.38
2022-12-14T11:14:42.563Z,97955.56
2022-12-14T11:16:41.128Z,97965.03
2022-12-14T11:18:39.248Z,97962.88
2022-12-14T11:20:37.211Z,97954.09
2022-12-14T11:22:35.330Z,97956.28
2022-12-14T11:24:35.644Z,97957.72
2022-12-14T11:26:33.637Z,97955.53
2022-12-14T11:28:37.026Z,97954.81
2022-12-14T11:30:35.875Z,97957.03
2022-12-14T11:32:34.199Z,97966.47
2022-12-14T11:34:32.106Z,97960.66
2022-12-14T11:36:30.310Z,97954.84
2022-12-14T11:38:28.772Z,97963.59
2022-12-14T11:40:27.287Z,97964.31
2022-12-14T11:42:25.604Z,97962.88
2022-12-14T11:44:23.636Z,97966.53
2022-12-14T11:46:21.660Z,97966.50
2022-12-14T11:48:20.040Z,97970.91
2022-12-14T11:50:18.042Z,97977.47
2022-12-14T11:52:17.130Z,97981.84
2022-12-14T11:54:15.395Z,97970.16
2022-12-14T11:56:13.531Z,97973.84
2022-12-14T11:58:11.447Z,97962.88
2022-12-14T12:00:09.725Z,97966.53
2022-12-14T12:02:08.183Z,97973.09
2022-12-14T12:04:06.302Z,97975.28
2022-12-14T12:06:04.614Z,97981.13
2022-12-14T12:08:02.989Z,97986.22
2022-12-14T12:10:02.019Z,97980.38
2022-12-14T12:12:00.027Z,97982.56
2022-12-14T12:13:59.200Z,97982.56
2022-12-14T12:15:57.452Z,97994.25
2022-12-14T12:17:56.584Z,97986.22
2022-12-14T12:19:54.580Z,97982.56
2022-12-14T12:21:52.572Z,97978.91
2022-12-14T12:23:50.620Z,97975.28
2022-12-14T12:25:48.578Z,97970.88
2022-12-14T12:27:47.766Z,97967.97
2022-12-14T12:29:46.115Z,97963.56
2022-12-14T12:31:44.455Z,97954.13
2022-12-14T12:33:42.755Z,97951.91
2022-12-14T12:35:40.750Z,97962.13
2022-12-14T12:37:38.743Z,97968.69
2022-12-14T12:39:37.763Z,97985.47
2022-12-14T12:41:35.729Z,97981.09
2022-12-14T12:43:34.043Z,97985.47
2022-12-14T12:45:32.010Z,97993.47
2022-12-14T12:47:38.415Z,97978.88
2022-12-14T12:49:44.734Z,97975.97
2022-12-14T12:51:42.995Z,97971.63
2022-12-14T12:53:40.991Z,97970.88
2022-12-14T12:55:39.375Z,97972.34
2022-12-14T12:57:37.727Z,97984.00
2022-12-14T12:59:35.645Z,97992.75
2022-12-14T13:01:33.859Z,97988.38
2022-12-14T13:03:32.378Z,97996.41
2022-12-14T13:05:47.815Z,97994.97
2022-12-14T13:07:46.883Z,97990.56
2022-12-14T13:09:45.028Z,97992.03
2022-12-14T13:11:42.954Z,97989.13
2022-12-14T13:13:44.079Z,97993.53
2022-12-14T13:15:42.067Z,98000.81
2022-12-14T13:59:49.273Z,98042.91
2022-12-14T14:01:47.599Z,98048.13
2022-12-14T14:03:46.156Z,98055.47
2022-12-14T14:05:44.486Z,98056.97
2022-12-14T14:07:42.440Z,98063.53
2022-12-14T14:09:40.398Z,98069.31
2022-12-14T14:11:39.154Z,98067.09
2022-12-14T14:13:38.225Z,98065.56
2022-12-14T14:15:36.270Z,98066.91
2022-12-14T14:17:35.240Z,98065.41
2022-12-14T14:19:33.498Z,98067.53
2022-12-14T14:21:31.428Z,98070.38
2022-12-14T14:23:29.333Z,98072.56
2022-12-14T14:25:27.318Z,98090.81
2022-12-14T14:27:25.552Z,98084.97
2022-12-14T14:29:23.565Z,98095.19
2022-12-14T14:31:21.802Z,98097.38
2022-12-14T14:33:44.992Z,98101.78
2022-12-14T14:35:38.841Z,98104.00
2022-12-14T14:37:37.155Z,98115.72
2022-12-14T14:41:53.277Z,98126.72
2022-12-14T14:43:51.745Z,98136.25
2022-12-14T14:45:49.690Z,98125.28
2022-12-14T14:47:47.691Z,98129.72
2022-12-14T14:49:47.186Z,98131.16
2022-12-14T14:51:46.181Z,98123.88
2022-12-14T14:53:45.229Z,98132.63
2022-12-14T14:55:53.264Z,98139.97
2022-12-14T14:57:51.890Z,98148.75
2022-12-14T14:59:50.929Z,98146.56
2022-12-14T15:01:49.551Z,98152.44
2022-12-14T15:03:47.641Z,98159.03
2022-12-14T15:05:46.759Z,98154.63
2022-12-14T15:07:47.711Z,98163.44
2022-12-14T15:09:45.704Z,98166.34
2022-12-14T15:11:43.653Z,98169.28
2022-12-14T15:13:41.977Z,98171.47
2022-12-14T15:15:40.319Z,98176.63
2022-12-14T15:17:38.456Z,98179.56
2022-12-14T15:19:38.328Z,98176.63
2022-12-14T15:21:38.265Z,98178.13
2022-12-14T15:23:36.974Z,98188.34
2022-12-14T15:25:35.267Z,98188.31
2022-12-14T15:27:34.179Z,98185.44
2022-12-14T15:29:32.606Z,98178.13
2022-12-14T15:31:30.651Z,98191.28
2022-12-14T15:33:29.023Z,98189.78
2022-12-14T15:35:27.165Z,98190.53
2022-12-14T15:37:25.395Z,98186.16
2022-12-14T15:39:23.344Z,98190.50
2022-12-14T15:41:21.601Z,98196.34
2022-12-14T15:43:19.884Z,98195.63
2022-12-14T15:45:18.495Z,98200.72
2022-12-14T15:47:16.660Z,98200.72
2022-12-14T15:49:15.807Z,98197.81
2022-12-14T15:51:13.769Z,98208.78
2022-12-14T15:53:12.334Z,98213.16
2022-12-14T15:55:10.631Z,98205.13
2022-12-14T15:57:09.909Z,98208.78
2022-12-14T15:59:08.359Z,98200.75
2022-12-14T16:01:06.369Z,98201.47
2022-12-14T16:03:04.646Z,98206.59
2022-12-14T16:05:02.844Z,98216.09
2022-12-14T16:07:07.850Z,98222.66
2022-12-14T16:09:06.892Z,98221.22
2022-12-14T16:11:04.865Z,98226.31
2022-12-14T16:13:02.801Z,98226.31
2022-12-14T16:15:00.755Z,98231.44
2022-12-14T16:16:58.814Z,98232.16
2022-12-14T16:19:08.886Z,98240.22
2022-12-14T16:21:13.090Z,98233.63
2022-12-14T16:23:12.372Z,98241.66
2022-12-14T16:25:10.409Z,98251.91
2022-12-14T16:27:08.594Z,98244.59
2022-12-14T16:29:06.557Z,98244.59
2022-12-14T16:31:04.477Z,98236.56
2022-12-14T16:33:02.665Z,98241.66
2022-12-14T16:35:00.952Z,98241.66
2022-12-14T16:37:30.341Z,98230.72
2022-12-14T16:39:19.451Z,98238.00
2022-12-14T16:41:17.524Z,98239.47
2022-12-14T16:43:15.527Z,98239.47
2022-12-14T16:45:13.747Z,98246.75
2022-12-14T16:47:12.027Z,98251.88
2022-12-14T16:49:10.587Z,98256.22
2022-12-14T16:51:17.363Z,98256.25
2022-12-14T16:53:16.308Z,98253.31
2022-12-14T16:55:14.282Z,98260.59
2022-12-14T16:57:12.293Z,98258.44
2022-12-14T16:59:10.456Z,98255.50
2022-12-14T17:01:08.645Z,98270.84
2022-12-14T17:03:06.926Z,98265.72
2022-12-14T17:05:05.020Z,98270.81
2022-12-14T17:07:03.027Z,98268.66
2022-12-14T17:09:01.268Z,98268.66
2022-12-14T17:10:59.146Z,98270.09
2022-12-14T17:12:57.649Z,98275.94
2022-12-14T17:14:55.619Z,98274.47
2022-12-14T17:16:53.674Z,98276.66
2022-12-14T17:18:51.734Z,98281.75
2022-12-14T17:20:49.904Z,98277.41
2022-12-14T17:22:49.540Z,98282.50
2022-12-14T17:24:48.160Z,98285.44
2022-12-14T17:26:47.646Z,98274.47
2022-12-14T17:28:45.789Z,98283.97
2022-12-14T17:30:45.990Z,98288.34
2022-12-14T17:32:44.071Z,98276.66
2022-12-14T17:34:42.557Z,98287.63
2022-12-14T17:36:40.614Z,98298.56
2022-12-14T17:38:38.925Z,98304.44
2022-12-14T17:40:37.086Z,98303.69
2022-12-14T17:42:35.092Z,98297.84
2022-12-14T17:44:33.105Z,98299.31
2022-12-14T17:46:31.225Z,98294.91
2022-12-14T17:48:29.511Z,98284.72
2022-12-14T17:50:27.657Z,98275.94
2022-12-14T17:52:25.903Z,98273.03
2022-12-14T17:54:28.861Z,98275.94
2022-12-14T17:56:28.192Z,98275.94
2022-12-14T17:58:26.138Z,98282.50
2022-12-14T18:00:41.278Z,98276.66
2022-12-14T18:02:40.082Z,98274.50
2022-12-14T18:04:38.156Z,98269.38
2022-12-14T18:06:36.366Z,98267.91
2022-12-14T18:08:34.281Z,98269.38
2022-12-14T18:10:33.295Z,98255.50
2022-12-14T18:12:31.222Z,98267.91
2022-12-14T18:14:29.146Z,98265.00
2022-12-14T18:16:28.958Z,98269.38
2022-12-14T18:18:29.386Z,98274.47
2022-12-14T18:20:27.532Z,98274.50
2022-12-14T18:22:25.455Z,98278.88
2022-12-14T18:24:26.131Z,98299.31
2022-12-14T18:26:24.374Z,98289.81
2022-12-14T18:28:22.626Z,98292.00
2022-12-14T18:30:20.682Z,98295.63
2022-12-14T18:32:18.708Z,98298.56
2022-12-14T18:34:16.864Z,98298.53
2022-12-14T18:36:15.014Z,98309.50
2022-12-14T18:38:13.325Z,98306.59
2022-12-14T18:40:11.291Z,98313.13
2022-12-14T18:42:09.418Z,98317.50
2022-12-14T18:44:07.798Z,98323.34
2022-12-14T18:46:05.895Z,98324.81
2022-12-14T18:48:04.789Z,98319.72
2022-12-14T18:50:02.919Z,98326.25
2022-12-14T18:52:01.063Z,98319.72
2022-12-14T18:53:59.076Z,98318.97
2022-12-14T18:55:57.341Z,98310.22
2022-12-14T18:57:55.572Z,98327.72
2022-12-14T18:59:54.704Z,98330.69
2022-12-14T19:01:52.870Z,98325.53
2022-12-14T19:03:51.157Z,98326.28
2022-12-14T19:05:49.205Z,98329.94
2022-12-14T19:07:47.450Z,98329.94
2022-12-14T19:09:45.478Z,98334.31
2022-12-14T19:11:43.455Z,98338.72
2022-12-14T19:13:45.320Z,98332.13
2022-12-14T19:15:43.554Z,98341.63
2022-12-14T19:17:41.582Z,98338.00
2022-12-14T19:19:44.448Z,98338.72
2022-12-14T19:21:43.297Z,98329.97
2022-12-14T19:23:41.273Z,98327.75
2022-12-14T19:25:39.225Z,98334.34
2022-12-14T19:28:19.969Z,98327.03
2022-12-14T19:29:55.524Z,98329.25
2022-12-14T19:31:54.723Z,98331.44
2022-12-14T19:33:54.377Z,98329.94
2022-12-14T19:35:52.645Z,98327.03
2022-12-14T19:37:50.929Z,98329.94
2022-12-14T19:39:49.079Z,98338.72
2022-12-14T19:41:47.933Z,98324.09
2022-12-14T19:43:45.877Z,98321.19
2022-12-14T19:45:44.731Z,98321.19
2022-12-14T19:47:44.035Z,98324.84
2022-12-14T19:49:41.994Z,98324.84
2022-12-14T19:51:41.149Z,98333.63
2022-12-14T19:53:39.327Z,98336.53
2022-12-14T19:55:37.317Z,98332.16
2022-12-14T19:57:35.449Z,98343.09
2022-12-14T19:59:33.629Z,98335.06
2022-12-14T20:01:35.203Z,98345.28
2022-12-14T20:03:33.881Z,98338.72
2022-12-14T20:05:32.521Z,98338.72
2022-12-14T20:07:30.713Z,98327.75
2022-12-14T20:09:29.065Z,98324.84
2022-12-14T20:11:26.977Z,98324.06
2022-12-14T20:13:26.025Z,98324.81
2022-12-14T20:15:23.968Z,98340.13
2022-12-14T20:17:21.959Z,98340.84
2022-12-14T20:19:19.912Z,98348.16
2022-12-14T20:21:21.963Z,98356.16
2022-12-14T20:23:20.546Z,98356.88
2022-12-14T20:25:18.855Z,98353.25
2022-12-14T20:27:16.982Z,98360.53
2022-12-14T20:29:15.243Z,98359.81
2022-12-14T20:31:13.297Z,98362.00
2022-12-14T20:33:11.627Z,98359.81
2022-12-14T20:35:12.059Z,98365.66
2022-12-14T20:37:10.054Z,98370.78
2022-12-14T20:39:08.078Z,98359.09
2022-12-14T20:41:06.201Z,98359.81
2022-12-14T20:43:04.125Z,98364.94
2022-12-14T20:45:06.853Z,98356.16
2022-12-14T20:47:05.486Z,98356.91
2022-12-14T20:49:03.451Z,98362.03
2022-12-14T20:51:01.512Z,98365.69
2022-12-14T20:52:59.489Z,98364.22
2022-12-14T20:54:57.800Z,98365.69
2022-12-14T20:56:56.306Z,98370.06
2022-12-14T20:58:54.280Z,98370.78
2022-12-14T21:00:52.353Z,98375.91
2022-12-14T21:02:50.430Z,98380.31
2022-12-14T21:04:48.492Z,98375.19
2022-12-14T21:06:46.528Z,98373.72
2022-12-14T21:09:05.072Z,98375.19
2022-12-14T21:11:23.992Z,98377.38
2022-12-14T21:13:20.902Z,98380.31
2022-12-14T21:15:19.379Z,98379.59
2022-12-14T21:17:17.340Z,98370.84
2022-12-14T21:19:16.635Z,98368.63
2022-12-14T21:21:14.715Z,98364.25
2022-12-14T21:23:12.821Z,98360.59
2022-12-14T21:25:10.854Z,98359.84
2022-12-14T21:27:08.863Z,98359.16
2022-12-14T21:29:06.916Z,98359.16
2022-12-14T21:31:04.892Z,98359.16
2022-12-14T21:33:04.308Z,98356.94
2022-12-14T21:35:02.291Z,98361.34
2022-12-14T21:37:00.386Z,98363.53
2022-12-14T21:38:58.510Z,98366.44
2022-12-14T21:41:14.547Z,98364.25
2022-12-14T21:43:12.794Z,98355.47
2022-12-14T21:45:11.140Z,98365.69
2022-12-14T21:47:09.119Z,98364.97
2022-12-14T21:49:07.403Z,98372.25
2022-12-14T21:51:05.396Z,98367.84
2022-12-14T21:53:03.352Z,98376.59
2022-12-14T21:55:03.446Z,98370.78
2022-12-14T21:57:18.995Z,98376.59
2022-12-14T21:59:16.987Z,98383.88
2022-12-14T22:01:15.023Z,98372.91
2022-12-14T22:03:13.395Z,98369.97
2022-12-14T22:05:11.759Z,98382.38
2022-12-14T22:07:10.532Z,98378.72
2022-12-14T22:09:08.454Z,98378.72
2022-12-14T22:11:06.716Z,98373.63
2022-12-14T22:13:04.687Z,98373.63
2022-12-14T22:15:02.896Z,98378.72
2022-12-14T22:17:01.108Z,98385.31
2022-12-14T22:18:59.387Z,98380.94
2022-12-14T22:20:57.358Z,98380.94
2022-12-14T22:22:56.419Z,98369.25
2022-12-14T22:24:54.733Z,98378.00
2022-12-14T22:26:52.986Z,98385.31
2022-12-14T22:28:50.991Z,98381.69
2022-12-14T22:30:49.002Z,98380.94
2022-12-14T22:32:48.229Z,98380.94
2022-12-14T22:34:46.309Z,98385.34
2022-12-14T22:36:44.575Z,98386.06
2022-12-14T22:38:42.807Z,98383.88
2022-12-14T22:40:40.778Z,98396.31
2022-12-14T22:42:38.940Z,98397.78
2022-12-14T22:44:37.784Z,98391.19
2022-12-14T22:46:35.737Z,98398.50
2022-12-14T22:48:33.714Z,98402.91
2022-12-14T22:50:33.067Z,98403.63
2022-12-14T22:52:31.914Z,98404.38
2022-12-14T22:54:30.053Z,98401.44
2022-12-14T22:56:28.316Z,98408.00
2022-12-14T22:58:26.664Z,98408.00
2022-12-14T23:00:24.917Z,98415.31
2022-12-14T23:02:23.386Z,98418.22
2022-12-14T23:04:21.578Z,98424.81
2022-12-14T23:06:19.719Z,98421.88
2022-12-14T23:08:17.639Z,98429.94
2022-12-14T23:10:33.440Z,98434.28
2022-12-14T23:12:48.826Z,98440.84
2022-12-14T23:15:04.597Z,98445.94
2022-12-14T23:17:20.246Z,98462.00
2022-12-14T23:19:35.616Z,98451.78
2022-12-14T23:21:51.586Z,98446.63
2022-12-14T23:24:07.459Z,98440.78
2022-12-14T23:26:23.000Z,98442.25
2022-12-14T23:28:38.443Z,98432.03
2022-12-14T23:30:54.159Z,98436.38
2022-12-14T23:33:09.970Z,98442.19
2022-12-14T23:35:25.766Z,98438.56
2022-12-14T23:37:41.468Z,98451.69
2022-12-14T23:39:57.199Z,98438.56
2022-12-14T23:42:13.081Z,98443.66
2022-12-14T23:44:28.752Z,98447.31
2022-12-14T23:46:44.490Z,98434.22
2022-12-14T23:48:59.969Z,98448.78
2022-12-14T23:51:15.839Z,98444.44
2022-12-14T23:53:32.008Z,98445.16
2022-12-14T23:55:47.908Z,98449.59
2022-12-14T23:58:03.415Z,98450.31
